Time;durP1;ratioP1;P1;durP2;ratioP2;P2;SDS_P1;SDS_P2;PMS_P1;PMS_P2;Temp;Humidity;BMP_temperature;BMP_pressure;BME280_temperature;BME280_humidity;BME280_pressure;Samples;Min_cycle;Max_cycle;Signal;HPM_P1;HPM_P2
2021/01/19 00:02:11;;;;;;;13.83;5.80;;;;;;;-0.21;100.00;96917.06;5065422;28;20291;-72
2021/01/19 00:04:38;;;;;;;13.47;5.97;;;;;;;-0.18;100.00;96918.63;5064865;28;20315;-72
2021/01/19 00:07:04;;;;;;;12.93;5.53;;;;;;;-0.15;100.00;96913.22;5061520;28;20302;-72
2021/01/19 00:09:30;;;;;;;9.50;5.20;;;;;;;-0.17;100.00;96915.09;5061178;28;20794;-72
2021/01/19 00:11:56;;;;;;;13.30;5.77;;;;;;;-0.31;100.00;96912.53;5062476;28;20216;-72
2021/01/19 00:14:21;;;;;;;12.77;5.50;;;;;;;-0.23;100.00;96920.66;5061520;28;20202;-72
2021/01/19 00:16:47;;;;;;;12.70;6.10;;;;;;;-0.22;100.00;96917.16;5060424;28;20257;-72
2021/01/19 00:19:13;;;;;;;13.27;6.60;;;;;;;-0.19;100.00;96914.34;5060746;28;20234;-72
2021/01/19 00:21:40;;;;;;;15.50;6.30;;;;;;;-0.20;100.00;96910.94;5060186;28;20219;-72
2021/01/19 00:24:07;;;;;;;14.00;6.03;;;;;;;-0.16;100.00;96909.00;5059010;28;20751;-72
2021/01/19 00:26:33;;;;;;;13.37;6.23;;;;;;;-0.27;100.00;96911.44;5059687;28;20216;-72
2021/01/19 00:28:58;;;;;;;18.07;6.37;;;;;;;-0.19;100.00;96916.94;5060745;28;20266;-72
2021/01/19 00:31:25;;;;;;;14.20;6.13;;;;;;;-0.18;100.00;96908.25;5059772;28;20242;-72
2021/01/19 00:33:50;;;;;;;13.90;6.17;;;;;;;-0.29;100.00;96905.53;5059119;28;20210;-72
2021/01/19 00:36:16;;;;;;;13.67;6.30;;;;;;;-0.31;100.00;96897.84;5059648;28;20255;-72
2021/01/19 00:38:43;;;;;;;14.40;6.63;;;;;;;-0.34;100.00;96905.81;5062263;28;20210;-72
2021/01/19 00:41:09;;;;;;;15.70;6.73;;;;;;;-0.30;100.00;96898.69;5062568;28;20227;-72
2021/01/19 00:43:35;;;;;;;13.30;6.67;;;;;;;-0.37;100.00;96899.97;5062912;28;20290;-72
2021/01/19 00:46:01;;;;;;;16.63;6.77;;;;;;;-0.47;100.00;96896.28;5061662;28;20226;-72
2021/01/19 00:48:27;;;;;;;15.93;6.27;;;;;;;-0.46;100.00;96897.97;5062675;28;20234;-72
2021/01/19 00:50:53;;;;;;;15.57;6.50;;;;;;;-0.55;100.00;96895.94;5064439;28;20197;-72
2021/01/19 00:53:19;;;;;;;15.37;6.73;;;;;;;-0.45;100.00;96884.09;5064791;28;20672;-72
2021/01/19 00:55:46;;;;;;;17.40;6.93;;;;;;;-0.47;100.00;96891.09;5064592;28;20225;-72
2021/01/19 00:58:14;;;;;;;14.70;6.73;;;;;;;-0.55;100.00;96883.84;5064671;28;20201;-72
2021/01/19 01:00:40;;;;;;;12.57;6.17;;;;;;;-0.67;100.00;96883.75;5064000;28;20224;-72
2021/01/19 01:03:06;;;;;;;17.17;7.40;;;;;;;-0.57;100.00;96879.69;5064149;28;20634;-72
2021/01/19 01:05:32;;;;;;;12.13;6.00;;;;;;;-0.58;100.00;96888.38;5063524;28;21123;-72
2021/01/19 01:07:59;;;;;;;20.30;7.00;;;;;;;-0.57;100.00;96882.28;5063661;28;20205;-72
2021/01/19 01:10:25;;;;;;;16.93;7.03;;;;;;;-0.61;100.00;96879.03;5063073;28;20211;-72
2021/01/19 01:12:52;;;;;;;20.40;7.20;;;;;;;-0.73;100.00;96878.97;5063954;28;21016;-72
2021/01/19 01:15:28;;;;;;;14.00;6.37;;;;;;;-0.73;100.00;96876.38;5063017;28;20256;-72
2021/01/19 01:17:54;;;;;;;13.97;6.73;;;;;;;-0.73;100.00;96876.38;5062874;28;20216;-72
2021/01/19 01:20:20;;;;;;;15.07;6.50;;;;;;;-0.74;100.00;96871.28;5062883;28;20222;-72
2021/01/19 01:22:47;;;;;;;13.53;6.87;;;;;;;-0.84;100.00;96873.63;5062381;28;20232;-72
2021/01/19 01:25:14;;;;;;;15.07;7.47;;;;;;;-0.74;100.00;96876.47;5062632;28;20200;-72
2021/01/19 01:27:41;;;;;;;16.00;7.43;;;;;;;-0.74;100.00;96869.53;5063094;28;20219;-72
2021/01/19 01:30:10;;;;;;;17.13;7.73;;;;;;;-0.93;100.00;96881.94;5062439;28;20213;-72
2021/01/19 01:32:39;;;;;;;18.63;7.63;;;;;;;-0.78;100.00;96878.41;5062774;28;20325;-72
2021/01/19 01:35:06;;;;;;;16.77;7.80;;;;;;;-0.91;100.00;96880.06;5061765;28;20587;-72
2021/01/19 01:37:32;;;;;;;16.20;7.47;;;;;;;-0.90;100.00;96876.56;5062291;28;20211;-73
2021/01/19 01:39:58;;;;;;;20.20;7.87;;;;;;;-0.89;100.00;96875.66;5062143;28;20224;-72
2021/01/19 01:42:25;;;;;;;15.73;7.87;;;;;;;-0.94;100.00;96871.66;5062679;28;20203;-72
2021/01/19 01:44:52;;;;;;;19.57;8.30;;;;;;;-1.01;100.00;96876.38;5062279;28;20205;-72
2021/01/19 01:47:22;;;;;;;18.77;6.93;;;;;;;-0.98;100.00;96873.63;5062360;28;20233;-72
2021/01/19 01:49:48;;;;;;;20.60;8.33;;;;;;;-1.04;100.00;96868.81;5062031;28;20253;-72
2021/01/19 01:52:15;;;;;;;17.17;8.30;;;;;;;-1.19;100.00;96869.72;5061846;28;20983;-72
2021/01/19 01:54:41;;;;;;;21.57;9.27;;;;;;;-1.14;100.00;96872.88;5061514;28;21038;-72
2021/01/19 01:57:07;;;;;;;18.13;7.83;;;;;;;-1.15;100.00;96870.38;5061771;28;20220;-72
2021/01/19 01:59:33;;;;;;;17.57;8.60;;;;;;;-1.17;100.00;96867.06;5061991;28;20238;-72
2021/01/19 02:02:08;;;;;;;20.30;8.87;;;;;;;-1.15;100.00;96858.28;5060920;28;20208;-72
2021/01/19 02:04:34;;;;;;;17.93;8.07;;;;;;;-1.14;100.00;96849.59;5062077;28;20697;-72
2021/01/19 02:07:04;;;;;;;20.00;8.93;;;;;;;-1.16;100.00;96854.03;5061353;28;20278;-72
2021/01/19 02:09:35;;;;;;;20.43;9.07;;;;;;;-1.31;100.00;96848.13;5063136;28;21038;-72
2021/01/19 02:12:05;;;;;;;17.67;8.33;;;;;;;-1.36;100.00;96844.97;5062172;28;20201;-72
2021/01/19 02:14:35;;;;;;;22.97;9.93;;;;;;;-1.25;100.00;96834.84;5062814;28;20230;-72
2021/01/19 02:17:08;;;;;;;20.90;9.13;;;;;;;-1.23;100.00;96826.88;5061973;28;20235;-72
2021/01/19 02:20:19;;;;;;;17.43;9.10;;;;;;;-1.22;100.00;96831.13;5063295;28;20220;-72
2021/01/19 02:23:11;;;;;;;18.93;8.67;;;;;;;-1.27;100.00;96818.56;5062269;28;20207;-72
2021/01/19 02:25:54;;;;;;;22.27;8.87;;;;;;;-1.27;100.00;96818.56;5060758;28;20228;-72
2021/01/19 02:28:25;;;;;;;20.00;9.23;;;;;;;-1.36;100.00;96816.53;5061363;28;20200;-72
2021/01/19 02:31:06;;;;;;;21.53;9.63;;;;;;;-1.34;100.00;96807.78;5061540;28;20231;-72
2021/01/19 02:33:39;;;;;;;12.07;5.70;;;;;;;-1.31;100.00;96801.59;5062256;28;20204;-72
2021/01/19 02:36:12;;;;;;;21.50;10.30;;;;;;;-1.36;100.00;96801.88;5061766;28;20228;-72
2021/01/19 02:38:43;;;;;;;19.57;9.67;;;;;;;-1.40;100.00;96791.81;5061330;28;20236;-72
2021/01/19 02:41:12;;;;;;;18.40;9.53;;;;;;;-1.55;100.00;96793.56;5060869;28;20208;-72
2021/01/19 02:43:41;;;;;;;26.80;10.10;;;;;;;-1.38;100.00;96790.78;5060744;28;20616;-72
2021/01/19 02:46:07;;;;;;;18.53;8.03;;;;;;;-1.40;100.00;96791.81;5060609;28;20232;-72
2021/01/19 02:48:34;;;;;;;24.03;10.77;;;;;;;-1.41;100.00;96797.88;5061535;28;20201;-72
2021/01/19 02:51:00;;;;;;;26.77;10.83;;;;;;;-1.39;100.00;96803.81;5060412;28;20337;-72
2021/01/19 02:53:26;;;;;;;25.67;10.23;;;;;;;-1.42;100.00;96802.22;5061139;28;20256;-72
2021/01/19 02:55:53;;;;;;;27.67;10.87;;;;;;;-1.69;100.00;96805.63;5061434;28;20250;-72
2021/01/19 02:58:57;;;;;;;23.07;10.53;;;;;;;-1.59;100.00;96802.41;5061008;28;20200;-72
2021/01/19 03:01:29;;;;;;;21.50;10.17;;;;;;;-1.55;100.00;96792.75;4997873;28;20218;-72
2021/01/19 03:03:57;;;;;;;27.73;11.13;;;;;;;-1.50;100.00;96786.38;5051624;28;20204;-72
2021/01/19 03:06:30;;;;;;;24.37;10.47;;;;;;;-1.48;100.00;96786.28;5060428;28;20221;-72
2021/01/19 03:08:58;;;;;;;21.50;9.57;;;;;;;-1.53;100.00;96778.78;5061556;28;20255;-72
2021/01/19 03:11:25;;;;;;;22.80;10.90;;;;;;;-1.44;100.00;96775.66;5060895;28;20210;-72
2021/01/19 03:13:51;;;;;;;21.37;10.03;;;;;;;-1.38;100.00;96774.47;5061241;28;20288;-72
2021/01/19 03:16:19;;;;;;;21.00;9.77;;;;;;;-1.45;100.00;96765.41;5060388;28;20696;-72
2021/01/19 03:18:48;;;;;;;25.27;10.27;;;;;;;-1.50;100.00;96776.03;5061747;28;20205;-72
2021/01/19 03:21:15;;;;;;;26.87;10.73;;;;;;;-1.52;100.00;96771.88;5061067;28;20231;-72
2021/01/19 03:23:41;;;;;;;24.60;10.83;;;;;;;-1.58;100.00;96769.66;5060926;28;20203;-72
2021/01/19 03:26:08;;;;;;;26.93;11.50;;;;;;;-1.64;100.00;96773.44;5060662;28;20216;-72
2021/01/19 03:28:34;;;;;;;25.73;10.83;;;;;;;-1.56;100.00;96771.22;5062082;28;20682;-72
2021/01/19 03:31:01;;;;;;;24.60;11.27;;;;;;;-1.65;100.00;96764.00;5061799;28;20220;-72
2021/01/19 03:33:27;;;;;;;27.73;12.10;;;;;;;-1.58;100.00;96757.59;5063444;28;20291;-72
2021/01/19 03:35:53;;;;;;;24.87;11.83;;;;;;;-1.59;100.00;96760.22;5062675;28;20224;-72
2021/01/19 03:38:20;;;;;;;27.50;12.53;;;;;;;-1.60;100.00;96758.59;5063548;28;20488;-72
2021/01/19 03:40:46;;;;;;;24.00;11.53;;;;;;;-1.80;100.00;96752.00;5063497;28;20258;-72
2021/01/19 03:43:12;;;;;;;23.73;11.40;;;;;;;-1.75;100.00;96759.50;5062593;28;20202;-72
2021/01/19 03:45:39;;;;;;;24.57;11.37;;;;;;;-1.74;100.00;96761.97;5063094;28;20224;-72
2021/01/19 03:48:05;;;;;;;24.33;11.30;;;;;;;-1.63;100.00;96764.78;5064326;28;20204;-72
2021/01/19 03:50:31;;;;;;;25.40;11.40;;;;;;;-1.69;100.00;96764.31;5064504;28;20280;-72
2021/01/19 03:52:58;;;;;;;26.77;11.03;;;;;;;-1.82;100.00;96763.34;5064414;28;20772;-72
2021/01/19 03:55:24;;;;;;;29.00;11.20;;;;;;;-1.90;100.00;96769.91;5063657;28;20239;-72
2021/01/19 03:57:50;;;;;;;24.27;11.13;;;;;;;-1.85;100.00;96770.47;5064417;28;20205;-72
2021/01/19 04:00:17;;;;;;;25.63;12.30;;;;;;;-1.77;100.00;96763.91;5063954;28;20306;-72
2021/01/19 04:02:43;;;;;;;25.53;11.07;;;;;;;-1.68;100.00;96766.78;5064955;28;20201;-72
2021/01/19 04:05:10;;;;;;;28.97;11.57;;;;;;;-1.87;100.00;96760.22;5064495;28;20292;-72
2021/01/19 04:07:39;;;;;;;25.90;11.67;;;;;;;-1.95;100.00;96762.41;5064923;28;20265;-72
2021/01/19 04:10:07;;;;;;;23.60;11.27;;;;;;;-1.98;100.00;96757.44;5064613;28;20212;-72
2021/01/19 04:12:33;;;;;;;25.43;11.77;;;;;;;-2.03;100.00;96750.88;5067892;28;20215;-72
2021/01/19 04:14:59;;;;;;;35.07;13.43;;;;;;;-2.03;100.00;96753.47;5068466;28;20212;-72
2021/01/19 04:17:25;;;;;;;47.03;15.57;;;;;;;-1.96;100.00;96753.03;5067875;28;20295;-72
2021/01/19 04:19:51;;;;;;;45.30;17.17;;;;;;;-2.06;100.00;96748.47;5068827;28;20676;-72
2021/01/19 04:22:17;;;;;;;67.77;23.97;;;;;;;-2.05;100.00;96748.41;5069140;28;20642;-72
2021/01/19 04:24:43;;;;;;;54.60;19.43;;;;;;;-1.95;100.00;96741.75;5068996;28;20243;-72
2021/01/19 04:27:09;;;;;;;35.27;13.97;;;;;;;-1.98;100.00;96741.94;5068604;28;20228;-72
2021/01/19 04:29:36;;;;;;;37.73;14.80;;;;;;;-1.96;100.00;96740.13;5068970;28;20196;-72
2021/01/19 04:32:02;;;;;;;106.97;36.07;;;;;;;-1.90;100.00;96733.75;5067760;28;20208;-72
2021/01/19 04:34:28;;;;;;;97.77;37.33;;;;;;;-1.95;100.00;96723.69;5069229;28;20204;-72
2021/01/19 04:36:54;;;;;;;50.50;20.17;;;;;;;-2.10;100.00;96726.31;5069509;28;21114;-72
2021/01/19 04:39:20;;;;;;;38.50;17.17;;;;;;;-2.16;100.00;96729.28;5070574;28;20209;-72
2021/01/19 04:41:48;;;;;;;50.73;18.80;;;;;;;-2.30;100.00;96722.31;5070369;28;20290;-72
2021/01/19 04:44:15;;;;;;;48.57;21.87;;;;;;;-2.20;100.00;96720.88;5070122;28;20200;-72
2021/01/19 04:46:44;;;;;;;48.17;21.93;;;;;;;-2.28;100.00;96712.75;5070165;28;20556;-72
2021/01/19 04:49:11;;;;;;;65.53;26.33;;;;;;;-2.24;100.00;96716.81;5069779;28;20213;-70
2021/01/19 04:51:38;;;;;;;110.00;42.20;;;;;;;-2.22;100.00;96711.56;5070807;28;20224;-70
2021/01/19 04:54:06;;;;;;;98.80;38.03;;;;;;;-2.25;100.00;96717.75;5069858;28;20722;-70
2021/01/19 04:56:32;;;;;;;57.97;24.93;;;;;;;-2.13;100.00;96700.69;5067835;28;20281;-70
2021/01/19 04:58:58;;;;;;;36.80;16.87;;;;;;;-2.23;100.00;96705.59;5070635;28;20197;-70
2021/01/19 05:02:07;;;;;;;30.80;14.57;;;;;;;-2.23;100.00;96697.84;5070313;28;20220;-70
2021/01/19 05:04:47;;;;;;;29.33;11.63;;;;;;;-2.23;100.00;96694.41;5069694;28;20208;-70
2021/01/19 05:07:29;;;;;;;66.60;19.87;;;;;;;-2.26;100.00;96690.25;5070277;28;20324;-70
2021/01/19 05:10:07;;;;;;;108.50;31.67;;;;;;;-2.38;100.00;96695.28;5069960;28;20212;-70
2021/01/19 05:12:38;;;;;;;31.07;14.43;;;;;;;-2.42;100.00;96694.66;5069760;28;20205;-70
2021/01/19 05:15:07;;;;;;;30.23;13.23;;;;;;;-2.40;100.00;96687.66;5069108;28;20197;-70
2021/01/19 05:17:33;;;;;;;26.93;11.10;;;;;;;-2.31;100.00;96681.94;5070007;28;20577;-71
2021/01/19 05:20:00;;;;;;;26.00;11.30;;;;;;;-2.35;100.00;96675.31;5069926;28;20224;-70
2021/01/19 05:22:26;;;;;;;29.77;13.03;;;;;;;-2.41;100.00;96667.94;5070268;28;20216;-70
2021/01/19 05:24:52;;;;;;;28.03;11.23;;;;;;;-2.42;100.00;96663.72;5068807;28;20217;-70
2021/01/19 05:27:19;;;;;;;24.00;10.83;;;;;;;-2.50;100.00;96662.47;5070031;28;20220;-71
2021/01/19 05:29:45;;;;;;;25.97;10.23;;;;;;;-2.43;100.00;96660.38;5069527;28;20201;-70
2021/01/19 05:32:11;;;;;;;26.27;11.23;;;;;;;-2.64;100.00;96656.47;5068960;28;20695;-70
2021/01/19 05:34:38;;;;;;;24.57;10.07;;;;;;;-2.69;100.00;96658.47;5069737;28;20337;-70
2021/01/19 05:37:04;;;;;;;20.30;9.00;;;;;;;-2.74;100.00;96650.16;5069876;28;20229;-70
2021/01/19 05:39:30;;;;;;;27.83;12.13;;;;;;;-2.49;100.00;96646.09;5069444;28;20198;-70
2021/01/19 05:41:57;;;;;;;32.23;13.53;;;;;;;-2.54;100.00;96649.88;5069384;28;20281;-70
2021/01/19 05:44:26;;;;;;;28.57;12.57;;;;;;;-2.65;100.00;96642.72;5069596;28;20694;-70
2021/01/19 05:46:59;;;;;;;24.73;11.03;;;;;;;-2.66;100.00;96637.66;5069366;28;20608;-71
2021/01/19 05:49:27;;;;;;;24.27;10.33;;;;;;;-2.54;100.00;96624.88;5069710;28;20200;-71
2021/01/19 05:51:58;;;;;;;20.70;9.93;;;;;;;-2.60;100.00;96621.84;5069899;28;20200;-70
2021/01/19 05:54:30;;;;;;;26.50;10.37;;;;;;;-2.54;100.00;96626.66;5068585;28;20243;-70
2021/01/19 05:57:05;;;;;;;22.30;9.87;;;;;;;-2.54;100.00;96635.19;5068693;28;20699;-70
2021/01/19 05:59:34;;;;;;;26.27;10.70;;;;;;;-2.44;100.00;96627.75;5069049;28;20212;-71
2021/01/19 06:02:02;;;;;;;22.23;10.20;;;;;;;-2.45;100.00;96626.94;5069196;28;20204;-71
2021/01/19 06:04:37;;;;;;;20.37;8.93;;;;;;;-2.61;100.00;96635.63;5067476;28;20265;-71
2021/01/19 06:07:04;;;;;;;25.83;10.43;;;;;;;-2.51;100.00;96632.44;5068448;28;20233;-71
2021/01/19 06:09:31;;;;;;;21.20;9.30;;;;;;;-2.55;100.00;96641.28;5068902;28;20212;-70
2021/01/19 06:11:57;;;;;;;23.63;9.00;;;;;;;-2.51;100.00;96649.66;5068782;28;20353;-70
2021/01/19 06:14:25;;;;;;;19.03;9.33;;;;;;;-2.43;100.00;96637.16;5069126;28;20200;-70
2021/01/19 06:16:51;;;;;;;22.43;10.00;;;;;;;-2.41;100.00;96618.09;5068029;28;20591;-71
2021/01/19 06:19:27;;;;;;;25.10;9.63;;;;;;;-2.45;100.00;96619.19;5069258;28;20216;-71
2021/01/19 06:21:53;;;;;;;19.10;9.30;;;;;;;-2.42;100.00;96623.34;5068330;28;20200;-71
2021/01/19 06:24:31;;;;;;;26.87;10.90;;;;;;;-2.39;100.00;96617.06;5068934;28;20204;-71
2021/01/19 06:26:56;;;;;;;27.50;11.73;;;;;;;-2.40;100.00;96615.41;5067821;28;20227;-72
2021/01/19 06:29:23;;;;;;;25.20;11.60;;;;;;;-2.42;100.00;96607.84;5063702;28;20307;-72
2021/01/19 06:31:51;;;;;;;26.10;11.87;;;;;;;-2.40;100.00;96607.66;5062597;28;20208;-71
2021/01/19 06:34:25;;;;;;;26.30;11.67;;;;;;;-2.28;100.00;96604.38;5059639;28;20207;-71
2021/01/19 06:36:51;;;;;;;27.10;12.03;;;;;;;-2.33;100.00;96606.41;5068587;28;20642;-71
2021/01/19 06:39:28;;;;;;;27.43;11.30;;;;;;;-2.36;100.00;96603.97;5068233;28;20201;-71
2021/01/19 06:42:04;;;;;;;29.50;12.20;;;;;;;-2.43;100.00;96601.88;5067148;28;20204;-71
2021/01/19 06:44:36;;;;;;;28.17;11.77;;;;;;;-2.41;100.00;96603.44;5067577;28;20204;-71
2021/01/19 06:47:03;;;;;;;30.57;12.57;;;;;;;-2.55;100.00;96609.50;5067864;28;20269;-71
2021/01/19 06:49:32;;;;;;;29.93;12.77;;;;;;;-2.50;100.00;96599.75;5067604;28;20729;-72
2021/01/19 06:52:04;;;;;;;30.77;11.83;;;;;;;-2.50;100.00;96599.75;5065639;28;20200;-72
2021/01/19 06:54:41;;;;;;;26.57;11.40;;;;;;;-2.64;100.00;96589.41;5064458;28;20269;-72
2021/01/19 06:57:26;;;;;;;32.67;13.77;;;;;;;-2.62;100.00;96583.25;5064047;28;20231;-72
2021/01/19 07:00:02;;;;;;;32.07;13.20;;;;;;;-2.78;100.00;96576.50;5064209;28;20216;-72
2021/01/19 07:02:34;;;;;;;33.13;13.27;;;;;;;-2.66;100.00;96565.44;5064382;28;20209;-72
2021/01/19 07:05:08;;;;;;;30.83;13.40;;;;;;;-2.59;100.00;96559.84;5062850;28;20591;-72
2021/01/19 07:07:39;;;;;;;32.70;12.70;;;;;;;-2.53;100.00;96551.75;5063606;28;20200;-72
2021/01/19 07:10:09;;;;;;;29.43;12.57;;;;;;;-2.53;100.00;96540.59;5064399;28;20687;-72
2021/01/19 07:13:06;;;;;;;29.87;13.60;;;;;;;-2.53;100.00;96543.16;5064592;28;20207;-72
2021/01/19 07:16:05;;;;;;;30.97;12.57;;;;;;;-2.42;100.00;96545.03;5063651;28;20229;-72
2021/01/19 07:18:53;;;;;;;35.57;12.90;;;;;;;-2.43;100.00;96545.13;5063408;28;20605;-72
2021/01/19 07:21:20;;;;;;;28.30;12.00;;;;;;;-2.70;100.00;96554.50;5064379;28;20258;-72
2021/01/19 07:24:17;;;;;;;30.17;13.33;;;;;;;-2.64;100.00;96553.31;5062077;28;20266;-72
2021/01/19 07:26:45;;;;;;;33.20;13.03;;;;;;;-2.47;100.00;96545.38;5054104;28;20266;-72
2021/01/19 07:29:12;;;;;;;38.97;14.80;;;;;;;-2.62;100.00;96551.44;5063800;28;20224;-72
2021/01/19 07:31:38;;;;;;;44.80;16.23;;;;;;;-2.57;100.00;96536.53;5063743;28;20204;-72
2021/01/19 07:34:05;;;;;;;27.00;11.10;;;;;;;-2.55;100.00;96542.44;5063309;28;20728;-72
2021/01/19 07:36:32;;;;;;;28.40;11.63;;;;;;;-2.70;100.00;96540.75;5063218;28;20231;-72
2021/01/19 07:38:58;;;;;;;30.30;12.20;;;;;;;-2.78;100.00;96541.22;5064037;28;20207;-72
2021/01/19 07:41:28;;;;;;;24.90;10.60;;;;;;;-2.82;100.00;96544.06;5063932;28;20220;-72
2021/01/19 07:43:55;;;;;;;32.23;11.70;;;;;;;-2.79;100.00;96536.16;5063536;28;20209;-72
2021/01/19 07:46:23;;;;;;;26.80;10.90;;;;;;;-2.89;100.00;96535.03;5063513;28;20226;-72
2021/01/19 07:49:00;;;;;;;30.17;12.33;;;;;;;-2.86;100.00;96532.28;5068506;28;20234;-72
2021/01/19 07:51:26;;;;;;;29.57;11.63;;;;;;;-2.72;100.00;96527.97;5066543;28;20200;-72
2021/01/19 07:53:53;;;;;;;31.37;12.70;;;;;;;-2.59;100.00;96531.47;5065594;28;20215;-72
2021/01/19 07:56:23;;;;;;;29.53;12.93;;;;;;;-2.51;100.00;96526.66;5064120;28;20559;-72
2021/01/19 07:58:49;;;;;;;34.80;13.07;;;;;;;-2.36;100.00;96518.00;5065044;28;20200;-72
2021/01/19 08:01:24;;;;;;;32.50;12.87;;;;;;;-1.88;100.00;96514.97;5063669;28;20223;-72
2021/01/19 08:03:50;;;;;;;30.87;13.17;;;;;;;-1.95;100.00;96509.38;5064760;28;20415;-72
2021/01/19 08:06:16;;;;;;;27.37;12.63;;;;;;;-1.91;100.00;96516.00;5063874;28;20815;-72
2021/01/19 08:08:42;;;;;;;31.77;12.93;;;;;;;-1.81;100.00;96506.75;5064509;28;20219;-72
2021/01/19 08:11:19;;;;;;;25.57;12.40;;;;;;;-1.74;100.00;96505.47;5063328;28;20769;-72
2021/01/19 08:13:46;;;;;;;27.47;12.23;;;;;;;-1.62;100.00;96505.50;5063422;28;20234;-72
2021/01/19 08:16:27;;;;;;;28.23;12.57;;;;;;;-1.60;100.00;96505.41;5063237;28;20277;-72
2021/01/19 08:19:04;;;;;;;26.23;11.57;;;;;;;-1.68;100.00;96505.91;5063423;28;20208;-72
2021/01/19 08:21:36;;;;;;;31.77;12.70;;;;;;;-1.42;100.00;96488.72;5063132;28;20267;-72
2021/01/19 08:24:07;;;;;;;27.50;11.83;;;;;;;-1.26;100.00;96484.19;5062243;28;21189;-72
2021/01/19 08:26:34;;;;;;;27.67;12.10;;;;;;;-1.14;100.00;96474.72;5062132;28;20234;-72
2021/01/19 08:29:02;;;;;;;28.37;12.83;;;;;;;-1.09;100.00;96469.25;5062513;28;20221;-72
2021/01/19 08:31:30;;;;;;;25.10;11.53;;;;;;;-1.15;100.00;96473.03;5063152;28;20201;-72
2021/01/19 08:34:04;;;;;;;32.83;12.50;;;;;;;-1.10;100.00;96473.56;5063199;28;20209;-72
2021/01/19 08:36:31;;;;;;;29.83;12.30;;;;;;;-1.11;100.00;96469.34;5064714;28;20227;-72
2021/01/19 08:38:58;;;;;;;33.50;12.20;;;;;;;-0.96;100.00;96463.16;5065584;28;20204;-72
2021/01/19 08:41:25;;;;;;;23.50;11.50;;;;;;;-0.85;100.00;96462.41;5064299;28;20224;-72
2021/01/19 08:43:56;;;;;;;26.50;11.37;;;;;;;-0.74;100.00;96460.75;5064320;28;20212;-72
2021/01/19 08:46:23;;;;;;;24.50;10.57;;;;;;;-0.81;100.00;96467.28;5062431;28;20828;-72
2021/01/19 08:48:50;;;;;;;23.30;11.33;;;;;;;-0.84;100.00;96464.94;5063054;28;20204;-72
2021/01/19 08:51:24;;;;;;;25.73;12.10;;;;;;;-0.79;100.00;96457.69;5063054;28;20204;-72
2021/01/19 08:53:50;;;;;;;28.13;12.73;;;;;;;-0.69;100.00;96470.81;5061478;28;20212;-72
2021/01/19 08:56:18;;;;;;;24.07;11.50;;;;;;;-0.65;100.00;96467.09;5061598;28;20227;-72
2021/01/19 08:58:44;;;;;;;26.60;12.33;;;;;;;-0.58;100.00;96469.16;5062530;28;20232;-72
2021/01/19 09:01:10;;;;;;;29.93;12.57;;;;;;;-0.80;100.00;96462.94;5063049;28;20347;-72
2021/01/19 09:03:36;;;;;;;28.50;12.40;;;;;;;-0.63;100.00;96459.09;5063472;28;20222;-72
2021/01/19 09:06:03;;;;;;;26.87;12.80;;;;;;;-0.50;100.00;96456.50;5063603;28;20229;-72
2021/01/19 09:08:29;;;;;;;28.23;12.17;;;;;;;-0.37;100.00;96449.53;5062965;28;20200;-72
2021/01/19 09:11:02;;;;;;;31.37;13.60;;;;;;;-0.54;100.00;96455.88;5063226;28;20201;-72
2021/01/19 09:13:31;;;;;;;27.97;11.90;;;;;;;-0.57;100.00;96455.28;5063236;28;20273;-72
2021/01/19 09:15:57;;;;;;;26.07;12.03;;;;;;;-0.54;100.00;96449.88;5062485;28;20583;-72
2021/01/19 09:18:24;;;;;;;28.07;12.20;;;;;;;-0.37;100.00;96454.72;5063737;28;20200;-72
2021/01/19 09:21:00;;;;;;;24.83;11.97;;;;;;;-0.24;100.00;96445.16;5063546;28;20235;-72
2021/01/19 09:23:32;;;;;;;22.07;9.37;;;;;;;-0.07;100.00;96439.66;5062597;28;20196;-72
2021/01/19 09:26:03;;;;;;;28.73;12.43;;;;;;;0.20;100.00;96423.78;5060822;28;20248;-72
2021/01/19 09:28:29;;;;;;;20.93;9.37;;;;;;;0.00;100.00;96416.63;5062256;28;20672;-72
2021/01/19 09:30:55;;;;;;;26.60;12.53;;;;;;;0.18;100.00;96417.06;5062333;28;20311;-72
2021/01/19 09:33:30;;;;;;;25.97;12.70;;;;;;;0.33;100.00;96411.59;5062445;28;20975;-72
2021/01/19 09:35:57;;;;;;;28.40;13.10;;;;;;;0.33;100.00;96414.19;5061170;28;21090;-72
2021/01/19 09:38:24;;;;;;;25.23;12.27;;;;;;;0.59;100.00;96403.56;5062265;28;20204;-72
2021/01/19 09:40:51;;;;;;;13.20;6.97;;;;;;;0.36;100.00;96407.97;5061561;28;20226;-72
2021/01/19 09:43:17;;;;;;;22.20;11.60;;;;;;;0.45;100.00;96415.06;5062089;28;20220;-72
2021/01/19 09:45:44;;;;;;;22.60;11.53;;;;;;;0.48;100.00;96412.25;5061010;28;20605;-72
2021/01/19 09:48:13;;;;;;;20.93;9.30;;;;;;;0.43;100.00;96409.97;5060411;28;20208;-72
2021/01/19 09:50:39;;;;;;;24.67;11.63;;;;;;;0.50;100.00;96399.97;5060807;28;20739;-72
2021/01/19 09:53:05;;;;;;;24.87;10.47;;;;;;;0.39;100.00;96407.72;5060174;28;20262;-72
2021/01/19 09:55:32;;;;;;;23.13;9.97;;;;;;;0.46;100.00;96402.00;5059507;28;20738;-72
2021/01/19 09:57:59;;;;;;;23.73;11.67;;;;;;;0.56;100.00;96400.38;5059808;28;20710;-72
2021/01/19 10:00:29;;;;;;;25.50;11.70;;;;;;;0.73;100.00;96398.19;5058875;28;20699;-72
2021/01/19 10:02:55;;;;;;;18.93;9.43;;;;;;;0.75;100.00;96390.28;5059859;28;20202;-72
2021/01/19 10:05:22;;;;;;;20.87;10.90;;;;;;;0.93;100.00;96381.13;5059422;28;20221;-72
2021/01/19 10:07:49;;;;;;;18.10;9.43;;;;;;;0.77;100.00;96373.66;5059780;28;20206;-72
2021/01/19 10:10:16;;;;;;;21.53;11.03;;;;;;;0.92;100.00;96371.72;5059506;28;20246;-72
2021/01/19 10:12:43;;;;;;;19.23;10.03;;;;;;;0.95;100.00;96371.47;5059400;28;20244;-72
2021/01/19 10:15:13;;;;;;;22.63;10.60;;;;;;;1.08;100.00;96359.19;5058732;28;20209;-72
2021/01/19 10:17:39;;;;;;;21.77;11.20;;;;;;;1.39;100.00;96351.53;5056698;28;20208;-72
2021/01/19 10:20:10;;;;;;;26.33;10.70;;;;;;;1.62;99.31;96345.38;5056260;28;20205;-72
2021/01/19 10:22:38;;;;;;;20.80;10.17;;;;;;;1.55;97.15;96341.59;5056447;28;20211;-72
2021/01/19 10:25:07;;;;;;;19.40;9.77;;;;;;;1.63;98.92;96323.63;5056752;28;20205;-72
2021/01/19 10:27:38;;;;;;;24.00;11.00;;;;;;;1.55;99.11;96318.22;5056933;28;20611;-72
2021/01/19 10:30:06;;;;;;;19.00;10.27;;;;;;;1.58;98.64;96312.78;5057136;28;20221;-72
2021/01/19 10:32:45;;;;;;;20.07;9.70;;;;;;;1.70;97.75;96315.25;5057852;28;20205;-72
2021/01/19 10:35:12;;;;;;;15.30;7.13;;;;;;;1.58;97.51;96318.81;5055810;28;21066;-72
2021/01/19 10:37:51;;;;;;;18.33;9.83;;;;;;;1.71;97.51;96306.50;5056225;28;20211;-72
2021/01/19 10:40:17;;;;;;;19.10;9.00;;;;;;;1.83;96.61;96308.97;5057029;28;20223;-72
2021/01/19 10:42:44;;;;;;;21.53;8.97;;;;;;;1.86;96.23;96293.13;5056813;28;20219;-72
2021/01/19 10:45:11;;;;;;;20.17;9.03;;;;;;;1.82;95.92;96285.72;5055249;28;20257;-72
2021/01/19 10:47:40;;;;;;;19.07;9.30;;;;;;;1.88;97.14;96282.59;5056072;28;20204;-72
2021/01/19 10:50:13;;;;;;;20.60;10.73;;;;;;;1.86;95.83;96294.91;5056615;28;20218;-72
2021/01/19 10:52:40;;;;;;;14.10;8.20;;;;;;;1.56;98.19;96299.13;5056707;28;20274;-72
2021/01/19 10:55:08;;;;;;;20.20;8.80;;;;;;;1.92;96.00;96297.00;5055839;28;20238;-73
2021/01/19 10:57:34;;;;;;;19.30;8.47;;;;;;;1.86;94.95;96289.72;5056174;28;20297;-72
2021/01/19 11:00:02;;;;;;;19.17;9.53;;;;;;;1.88;96.17;96290.41;5056342;28;20207;-72
2021/01/19 11:02:28;;;;;;;18.30;8.57;;;;;;;1.82;95.71;96276.13;5056599;28;20204;-72
2021/01/19 11:04:54;;;;;;;16.03;7.77;;;;;;;1.87;95.53;96274.00;5056891;28;20208;-72
2021/01/19 11:07:20;;;;;;;20.90;9.70;;;;;;;1.93;95.31;96281.28;5054074;28;20263;-72
2021/01/19 11:09:46;;;;;;;16.40;7.27;;;;;;;1.92;95.76;96277.06;5056292;28;20226;-72
2021/01/19 11:12:16;;;;;;;19.07;9.00;;;;;;;2.07;94.85;96273.19;5056654;28;20200;-72
2021/01/19 11:14:42;;;;;;;20.73;9.03;;;;;;;2.12;94.45;96270.22;5056441;28;20207;-72
2021/01/19 11:17:08;;;;;;;18.60;8.17;;;;;;;2.09;94.95;96263.50;5055910;28;20254;-72
2021/01/19 11:19:34;;;;;;;20.00;8.67;;;;;;;2.25;94.41;96265.66;5057020;28;20200;-72
2021/01/19 11:22:00;;;;;;;18.13;8.93;;;;;;;2.29;93.52;96261.84;5055486;28;20297;-72
2021/01/19 11:24:28;;;;;;;15.43;7.07;;;;;;;2.27;92.92;96249.00;5056198;28;20289;-72